createdAt,value
2023-08-08T00:01:31.262Z,101483.84
2023-08-08T00:03:57.956Z,101482.00
2023-08-08T00:06:24.468Z,101477.69
2023-08-08T00:08:50.898Z,101478.47
2023-08-08T00:11:17.330Z,101479.28
2023-08-08T00:13:43.978Z,101473.50
2023-08-08T00:16:11.029Z,101476.22
2023-08-08T00:18:37.499Z,101470.78
2023-08-08T00:21:03.980Z,101469.59
2023-08-08T00:23:30.499Z,101477.84
2023-08-08T00:25:57.135Z,101468.97
2023-08-08T00:28:23.642Z,101470.28
2023-08-08T00:30:50.296Z,101471.91
2023-08-08T00:33:17.722Z,101459.88
2023-08-08T00:35:45.789Z,101462.19
2023-08-08T00:38:12.369Z,101466.47
2023-08-08T00:40:38.821Z,101459.09
2023-08-08T00:43:05.326Z,101467.25
2023-08-08T00:45:32.005Z,101455.56
2023-08-08T00:47:58.637Z,101457.16
2023-08-08T00:50:25.261Z,101455.22
2023-08-08T00:52:51.998Z,101456.44
2023-08-08T00:55:18.683Z,101459.59
2023-08-08T00:57:45.658Z,101452.56
2023-08-08T01:00:12.875Z,101450.13
2023-08-08T01:02:39.848Z,101446.63
2023-08-08T01:05:07.634Z,101450.13
2023-08-08T01:07:44.917Z,101441.97
2023-08-08T01:10:23.614Z,101441.19
2023-08-08T01:12:54.601Z,101445.13
2023-08-08T01:15:22.514Z,101447.47
2023-08-08T01:17:49.475Z,101448.63
2023-08-08T01:20:18.030Z,101447.13
2023-08-08T01:23:13.938Z,101451.78
2023-08-08T01:25:42.006Z,101451.00
2023-08-08T01:28:09.135Z,101433.09
2023-08-08T01:30:35.805Z,101433.88
2023-08-08T01:33:03.249Z,101442.47
2023-08-08T01:35:33.343Z,101445.63
2023-08-08T01:38:24.912Z,101437.09
2023-08-08T01:40:51.872Z,101439.91
2023-08-08T01:43:19.603Z,101439.81
2023-08-08T01:45:46.246Z,101437.09
2023-08-08T01:48:12.912Z,101420.78
2023-08-08T01:50:39.576Z,101434.69
2023-08-08T01:53:06.043Z,101432.31
2023-08-08T01:55:32.779Z,101433.09
2023-08-08T01:57:59.690Z,101419.13
2023-08-08T02:00:26.284Z,101422.19
2023-08-08T02:02:53.382Z,101422.97
2023-08-08T02:05:20.062Z,101421.44
2023-08-08T02:07:46.569Z,101414.75
2023-08-08T02:10:12.994Z,101424.84
2023-08-08T02:12:39.533Z,101424.09
2023-08-08T02:15:07.015Z,101416.28
2023-08-08T02:17:33.623Z,101414.31
2023-08-08T02:20:00.195Z,101408.09
2023-08-08T02:22:26.747Z,101411.53
2023-08-08T02:24:53.297Z,101407.25
2023-08-08T02:27:19.794Z,101411.53
2023-08-08T02:29:46.226Z,101408.03
2023-08-08T02:32:14.275Z,101410.00
2023-08-08T02:34:40.750Z,101400.66
2023-08-08T02:37:07.269Z,101405.69
2023-08-08T02:39:33.717Z,101398.66
2023-08-08T02:42:00.424Z,101403.75
2023-08-08T02:44:27.085Z,101392.50
2023-08-08T02:46:53.552Z,101401.09
2023-08-08T02:49:19.940Z,101396.81
2023-08-08T02:51:46.356Z,101398.72
2023-08-08T02:54:12.797Z,101401.81
2023-08-08T02:56:39.225Z,101406.47
2023-08-08T02:59:05.623Z,101402.19
2023-08-08T03:01:32.286Z,101398.22
2023-08-08T03:03:59.296Z,101388.13
2023-08-08T03:06:26.283Z,101389.28
2023-08-08T03:08:52.776Z,101391.22
2023-08-08T03:11:19.312Z,101390.78
2023-08-08T03:13:45.823Z,101383.34
2023-08-08T03:16:12.263Z,101385.63
2023-08-08T03:18:38.999Z,101392.22
2023-08-08T03:21:05.621Z,101389.88
2023-08-08T03:23:32.285Z,101388.69
2023-08-08T03:25:58.727Z,101387.56
2023-08-08T03:28:25.709Z,101393.72
2023-08-08T03:30:52.212Z,101386.72
2023-08-08T03:33:18.657Z,101385.56
2023-08-08T03:35:45.160Z,101392.94
2023-08-08T03:38:11.717Z,101381.28
2023-08-08T03:40:38.442Z,101384.00
2023-08-08T03:43:05.184Z,101380.13
2023-08-08T03:45:31.703Z,101378.97
2023-08-08T03:47:58.134Z,101373.19
2023-08-08T03:50:24.838Z,101379.06
2023-08-08T03:52:51.263Z,101374.75
2023-08-08T03:55:17.784Z,101374.38
2023-08-08T03:57:44.665Z,101375.91
2023-08-08T04:00:12.585Z,101373.91
2023-08-08T04:02:39.564Z,101373.91
2023-08-08T04:05:06.623Z,101363.78
2023-08-08T04:07:33.090Z,101372.31
2023-08-08T04:09:59.587Z,101367.69
2023-08-08T04:12:26.113Z,101365.25
2023-08-08T04:14:52.634Z,101362.09
2023-08-08T04:17:21.541Z,101358.22
2023-08-08T04:19:48.963Z,101352.72
2023-08-08T04:22:16.845Z,101358.44
2023-08-08T04:24:43.507Z,101356.44
2023-08-08T04:27:10.126Z,101353.66
2023-08-08T04:29:37.359Z,101364.47
2023-08-08T04:32:04.247Z,101364.03
2023-08-08T04:34:30.702Z,101370.25
2023-08-08T04:36:57.150Z,101366.75
2023-08-08T04:39:23.613Z,101364.81
2023-08-08T04:41:50.072Z,101369.91
2023-08-08T04:44:16.537Z,101358.38
2023-08-08T04:46:43.007Z,101363.09
2023-08-08T04:49:09.541Z,101363.16
2023-08-08T04:51:36.110Z,101359.47
2023-08-08T04:54:02.655Z,101354.09
2023-08-08T04:56:30.583Z,101355.34
2023-08-08T04:58:57.632Z,101355.06
2023-08-08T05:01:24.073Z,101351.19
2023-08-08T05:03:52.471Z,101355.47
2023-08-08T05:06:20.545Z,101358.72
2023-08-08T05:08:46.987Z,101357.66
2023-08-08T05:11:13.657Z,101355.47
2023-08-08T05:13:40.224Z,101357.13
2023-08-08T05:16:07.474Z,101360.00
2023-08-08T05:18:33.976Z,101354.97
2023-08-08T05:21:00.525Z,101368.75
2023-08-08T05:23:27.139Z,101368.03
2023-08-08T05:25:53.557Z,101352.06
2023-08-08T05:28:20.073Z,101370.28
2023-08-08T05:30:46.617Z,101367.75
2023-08-08T05:33:13.097Z,101366.41
2023-08-08T05:35:39.528Z,101369.69
2023-08-08T05:38:06.531Z,101363.13
2023-08-08T05:40:36.276Z,101364.00
2023-08-08T05:43:04.153Z,101370.59
2023-08-08T05:45:30.702Z,101369.34
2023-08-08T05:47:57.569Z,101367.53
2023-08-08T05:50:24.218Z,101376.16
2023-08-08T05:52:50.700Z,101382.78
2023-08-08T05:55:17.333Z,101374.13
2023-08-08T05:57:43.910Z,101369.06
2023-08-08T06:00:12.475Z,101376.69
2023-08-08T06:02:39.360Z,101372.97
2023-08-08T06:05:06.501Z,101370.66
2023-08-08T06:07:33.163Z,101373.88
2023-08-08T06:09:59.655Z,101377.75
2023-08-08T06:12:26.459Z,101370.03
2023-08-08T06:14:52.883Z,101380.25
2023-08-08T06:17:19.412Z,101371.31
2023-08-08T06:19:46.396Z,101372.69
2023-08-08T06:22:13.131Z,101382.31
2023-08-08T06:24:40.313Z,101379.22
2023-08-08T06:27:06.966Z,101376.22
2023-08-08T06:29:33.484Z,101382.06
2023-08-08T06:32:00.414Z,101380.25
2023-08-08T06:34:27.266Z,101377.47
2023-08-08T06:36:53.712Z,101379.94
2023-08-08T06:39:22.329Z,101381.34
2023-08-08T06:41:49.183Z,101382.66
2023-08-08T06:44:15.791Z,101385.75
2023-08-08T06:46:42.376Z,101374.38
2023-08-08T06:49:10.045Z,101371.31
2023-08-08T06:51:36.684Z,101373.75
2023-08-08T06:54:04.129Z,101379.84
2023-08-08T06:56:30.678Z,101378.81
2023-08-08T06:58:57.130Z,101381.00
2023-08-08T07:01:23.661Z,101390.66
2023-08-08T07:03:50.195Z,101387.78
2023-08-08T07:06:18.958Z,101382.56
2023-08-08T07:08:45.467Z,101380.28
2023-08-08T07:11:12.141Z,101386.19
2023-08-08T07:13:38.971Z,101380.44
2023-08-08T07:16:05.666Z,101381.56
2023-08-08T07:18:32.264Z,101388.19
2023-08-08T07:20:58.886Z,101389.50
2023-08-08T07:23:25.767Z,101380.16
2023-08-08T07:25:52.484Z,101382.69
2023-08-08T07:28:19.260Z,101381.19
2023-08-08T07:30:45.896Z,101369.06
2023-08-08T07:33:12.441Z,101364.72
2023-08-08T07:35:39.062Z,101375.56
2023-08-08T07:38:05.538Z,101361.66
2023-08-08T07:40:32.257Z,101362.66
2023-08-08T07:42:58.710Z,101372.09
2023-08-08T07:45:25.279Z,101363.56
2023-08-08T07:47:51.762Z,101354.09
2023-08-08T07:50:18.234Z,101370.88
2023-08-08T07:52:44.723Z,101346.00
2023-08-08T07:55:11.309Z,101352.34
2023-08-08T07:57:37.803Z,101350.84
2023-08-08T08:00:14.962Z,101353.06
2023-08-08T08:02:43.746Z,101369.19
2023-08-08T08:05:10.737Z,101363.94
2023-08-08T08:07:38.843Z,101361.81
2023-08-08T08:10:08.633Z,101361.41
2023-08-08T08:12:36.098Z,101357.25
2023-08-08T08:15:03.460Z,101358.56
2023-08-08T08:17:30.025Z,101352.84
2023-08-08T08:19:56.678Z,101360.94
2023-08-08T08:22:23.223Z,101353.25
2023-08-08T08:24:49.839Z,101363.72
2023-08-08T08:27:16.506Z,101353.66
2023-08-08T08:29:43.019Z,101352.00
2023-08-08T08:32:09.940Z,101352.94
2023-08-08T08:34:36.400Z,101350.72
2023-08-08T08:37:03.326Z,101353.75
2023-08-08T08:39:29.990Z,101351.09
2023-08-08T08:42:03.029Z,101349.53
2023-08-08T08:44:32.092Z,101364.19
2023-08-08T08:47:02.597Z,101361.13
2023-08-08T08:49:31.866Z,101363.06
2023-08-08T08:52:06.078Z,101355.81
2023-08-08T08:54:34.239Z,101357.38
2023-08-08T08:57:01.231Z,101353.97
2023-08-08T08:59:27.926Z,101351.59
2023-08-08T09:01:54.586Z,101365.41
2023-08-08T09:04:22.620Z,101360.66
2023-08-08T09:06:50.981Z,101365.91
2023-08-08T09:09:18.369Z,101368.59
2023-08-08T09:11:48.493Z,101362.28
2023-08-08T09:14:20.272Z,101358.41
2023-08-08T09:16:48.153Z,101367.13
2023-08-08T09:19:16.025Z,101365.44
2023-08-08T09:21:42.487Z,101371.16
2023-08-08T09:24:09.101Z,101366.53
2023-08-08T09:26:35.902Z,101361.19
2023-08-08T09:29:03.779Z,101360.34
2023-08-08T09:31:31.299Z,101357.59
2023-08-08T09:33:59.767Z,101347.03
2023-08-08T09:36:26.992Z,101355.03
2023-08-08T09:38:57.542Z,101356.94
2023-08-08T09:41:24.681Z,101374.56
2023-08-08T09:43:53.141Z,101367.03
2023-08-08T09:46:20.649Z,101358.56
2023-08-08T09:48:47.625Z,101368.31
2023-08-08T09:51:14.658Z,101365.91
2023-08-08T09:53:41.979Z,101363.84
2023-08-08T09:56:09.279Z,101363.16
2023-08-08T09:58:35.731Z,101370.75
2023-08-08T10:01:02.236Z,101376.88
2023-08-08T10:03:29.654Z,101379.06
2023-08-08T10:05:56.136Z,101375.63
2023-08-08T10:08:23.062Z,101366.63
2023-08-08T10:10:51.612Z,101375.28
2023-08-08T10:13:27.372Z,101377.00
2023-08-08T10:15:55.209Z,101374.44
2023-08-08T10:18:25.685Z,101369.44
2023-08-08T10:20:54.497Z,101371.69
2023-08-08T10:23:21.772Z,101367.16
2023-08-08T10:25:51.157Z,101377.16
2023-08-08T10:28:26.703Z,101381.44
2023-08-08T10:30:59.354Z,101380.00
2023-08-08T10:33:43.057Z,101387.50
2023-08-08T10:36:10.770Z,101385.97
2023-08-08T10:38:44.977Z,101377.34
2023-08-08T10:41:16.968Z,101382.91
2023-08-08T10:43:54.965Z,101385.13
2023-08-08T10:46:42.624Z,101389.75
2023-08-08T10:49:09.244Z,101387.91
2023-08-08T10:51:45.653Z,101384.53
2023-08-08T10:54:30.285Z,101382.91
2023-08-08T10:56:59.007Z,101379.63
2023-08-08T10:59:37.728Z,101381.56
2023-08-08T11:02:05.112Z,101373.16
2023-08-08T11:04:33.654Z,101375.06
2023-08-08T11:07:00.319Z,101374.81
2023-08-08T11:09:27.456Z,101380.16
2023-08-08T11:11:54.145Z,101381.91
2023-08-08T11:14:22.650Z,101376.44
2023-08-08T11:16:51.252Z,101388.78
2023-08-08T11:19:22.021Z,101369.38
2023-08-08T11:21:49.348Z,101380.75
2023-08-08T11:24:16.851Z,101381.44
2023-08-08T11:26:46.444Z,101377.78
2023-08-08T11:29:13.145Z,101379.28
2023-08-08T11:31:40.291Z,101371.00
2023-08-08T11:34:07.233Z,101374.34
2023-08-08T11:36:35.533Z,101372.19
2023-08-08T11:39:09.451Z,101368.94
2023-08-08T11:41:37.730Z,101372.88
2023-08-08T11:44:05.705Z,101355.66
2023-08-08T11:46:32.195Z,101362.88
2023-08-08T11:49:07.336Z,101350.34
2023-08-08T11:51:35.557Z,101364.09
2023-08-08T11:54:04.159Z,101350.78
2023-08-08T11:56:34.315Z,101361.72
2023-08-08T11:59:01.043Z,101357.16
2023-08-08T12:01:27.996Z,101347.13
2023-08-08T12:03:55.440Z,101352.69
2023-08-08T12:06:22.703Z,101355.19
2023-08-08T12:08:49.719Z,101350.72
2023-08-08T12:11:17.013Z,101353.41
2023-08-08T12:13:45.075Z,101359.19
2023-08-08T12:16:17.330Z,101355.00
2023-08-08T12:18:45.782Z,101359.69
2023-08-08T12:21:12.398Z,101350.50
2023-08-08T12:23:38.932Z,101354.41
2023-08-08T12:26:06.535Z,101349.75
2023-08-08T12:28:33.371Z,101352.53
2023-08-08T12:31:00.411Z,101355.84
2023-08-08T12:33:26.931Z,101356.53
2023-08-08T12:35:53.955Z,101367.84
2023-08-08T12:38:20.554Z,101359.50
2023-08-08T12:40:47.225Z,101360.38
2023-08-08T12:43:15.160Z,101351.31
2023-08-08T12:45:41.683Z,101360.03
2023-08-08T12:48:08.241Z,101359.56
2023-08-08T12:50:34.755Z,101359.50
2023-08-08T12:53:01.226Z,101350.22
2023-08-08T12:55:27.666Z,101353.44
2023-08-08T12:57:54.287Z,101351.09
2023-08-08T13:00:20.828Z,101357.31
2023-08-08T13:02:47.480Z,101355.22
2023-08-08T13:05:14.034Z,101343.22
2023-08-08T13:07:40.693Z,101357.56
2023-08-08T13:10:07.652Z,101362.72
2023-08-08T13:12:34.565Z,101360.53
2023-08-08T13:15:01.080Z,101355.19
2023-08-08T13:17:27.537Z,101362.22
2023-08-08T13:19:54.168Z,101369.53
2023-08-08T13:22:20.753Z,101357.19
2023-08-08T13:24:47.370Z,101353.47
2023-08-08T13:27:13.924Z,101357.41
2023-08-08T13:29:40.497Z,101366.88
2023-08-08T13:32:07.213Z,101368.66
2023-08-08T13:34:33.759Z,101369.50
2023-08-08T13:37:00.252Z,101378.19
2023-08-08T13:39:26.748Z,101372.00
2023-08-08T13:41:53.559Z,101369.91
2023-08-08T13:44:20.245Z,101386.97
2023-08-08T13:46:46.842Z,101372.13
2023-08-08T13:49:13.708Z,101380.19
2023-08-08T13:51:41.694Z,101378.72
2023-08-08T13:54:09.259Z,101379.03
2023-08-08T13:56:35.680Z,101383.50
2023-08-08T13:59:02.389Z,101378.69
2023-08-08T14:01:28.888Z,101388.16
2023-08-08T14:03:55.422Z,101369.84
2023-08-08T14:06:21.892Z,101385.06
2023-08-08T14:08:49.659Z,101380.88
2023-08-08T14:11:16.364Z,101387.00
2023-08-08T14:13:42.774Z,101388.91
2023-08-08T14:16:09.324Z,101391.09
2023-08-08T14:18:35.974Z,101386.19
2023-08-08T14:21:05.538Z,101398.47
2023-08-08T14:23:32.535Z,101387.50
2023-08-08T14:25:58.993Z,101387.31
2023-08-08T14:28:26.749Z,101386.91
2023-08-08T14:30:55.306Z,101373.69
2023-08-08T14:33:21.888Z,101377.13
2023-08-08T14:35:48.573Z,101375.06
2023-08-08T14:38:15.009Z,101370.50
2023-08-08T14:40:41.526Z,101376.47
2023-08-08T14:43:11.325Z,101375.00
2023-08-08T14:45:42.001Z,101367.28
2023-08-08T14:48:08.551Z,101371.91
2023-08-08T14:50:35.485Z,101369.81
2023-08-08T14:53:02.044Z,101374.75
2023-08-08T14:55:28.786Z,101368.38
2023-08-08T14:57:55.226Z,101373.22
2023-08-08T15:00:21.829Z,101380.44
2023-08-08T15:02:48.328Z,101383.38
2023-08-08T15:05:14.755Z,101385.28
2023-08-08T15:07:41.888Z,101381.28
2023-08-08T15:10:08.899Z,101380.34
2023-08-08T15:12:36.213Z,101386.94
2023-08-08T15:15:04.775Z,101389.81
2023-08-08T15:17:31.357Z,101385.81
2023-08-08T15:19:57.851Z,101380.66
2023-08-08T15:22:24.432Z,101389.28
2023-08-08T15:24:50.928Z,101382.28
2023-08-08T15:27:17.517Z,101408.25
2023-08-08T15:29:44.564Z,101388.56
2023-08-08T15:32:11.104Z,101384.81
2023-08-08T15:34:38.332Z,101389.56
2023-08-08T15:37:05.046Z,101387.81
2023-08-08T15:39:31.475Z,101387.63
2023-08-08T15:41:57.942Z,101379.56
2023-08-08T15:44:24.431Z,101380.16
2023-08-08T15:46:50.930Z,101388.94
2023-08-08T15:49:17.435Z,101393.94
2023-08-08T15:51:43.915Z,101388.50
2023-08-08T15:54:10.500Z,101376.38
2023-08-08T15:56:39.200Z,101376.31
2023-08-08T15:59:06.881Z,101363.13
2023-08-08T16:01:33.843Z,101366.97
2023-08-08T16:04:00.347Z,101373.22
2023-08-08T16:06:27.423Z,101376.13
2023-08-08T16:08:54.008Z,101373.16
2023-08-08T16:11:20.425Z,101371.22
2023-08-08T16:13:47.254Z,101369.66
2023-08-08T16:16:13.869Z,101369.31
2023-08-08T16:18:40.376Z,101363.16
2023-08-08T16:21:06.865Z,101353.81
2023-08-08T16:23:33.484Z,101363.31
2023-08-08T16:26:00.035Z,101368.84
2023-08-08T16:28:27.257Z,101374.75
2023-08-08T16:30:53.991Z,101371.31
2023-08-08T16:33:20.640Z,101376.09
2023-08-08T16:35:47.129Z,101370.63
2023-08-08T16:38:13.888Z,101375.38
2023-08-08T16:40:40.323Z,101377.69
2023-08-08T16:43:06.840Z,101375.34
2023-08-08T16:45:33.374Z,101372.22
2023-08-08T16:47:59.822Z,101361.28
2023-08-08T16:50:26.236Z,101366.84
2023-08-08T16:52:52.691Z,101372.38
2023-08-08T16:55:19.128Z,101366.84
2023-08-08T16:57:46.112Z,101364.50
2023-08-08T17:00:15.475Z,101381.78
2023-08-08T17:02:42.417Z,101381.06
2023-08-08T17:05:09.196Z,101367.78
2023-08-08T17:07:35.830Z,101372.59
2023-08-08T17:10:02.418Z,101369.84
2023-08-08T17:12:29.122Z,101368.28
2023-08-08T17:14:55.795Z,101371.03
2023-08-08T17:17:22.335Z,101350.28
2023-08-08T17:19:48.832Z,101352.28
2023-08-08T17:22:15.489Z,101354.63
2023-08-08T17:24:42.148Z,101360.91
2023-08-08T17:27:08.763Z,101360.53
2023-08-08T17:29:35.301Z,101373.03
2023-08-08T17:32:03.327Z,101368.72
2023-08-08T17:34:30.106Z,101373.81
2023-08-08T17:36:57.131Z,101366.38
2023-08-08T17:39:23.717Z,101375.72
2023-08-08T17:41:50.250Z,101374.56
2023-08-08T17:44:16.723Z,101370.59
2023-08-08T17:46:43.227Z,101369.00
2023-08-08T17:49:09.767Z,101369.00
2023-08-08T17:51:36.235Z,101368.22
2023-08-08T17:54:02.713Z,101363.88
2023-08-08T17:56:29.351Z,101362.72
2023-08-08T17:58:55.928Z,101367.44
2023-08-08T18:01:22.522Z,101361.91
2023-08-08T18:03:49.641Z,101359.59
2023-08-08T18:06:16.095Z,101355.66
2023-08-08T18:08:42.832Z,101346.22
2023-08-08T18:11:10.777Z,101342.66
2023-08-08T18:13:37.466Z,101337.91
2023-08-08T18:16:04.768Z,101338.28
2023-08-08T18:18:31.349Z,101346.03
2023-08-08T18:20:57.870Z,101341.75
2023-08-08T18:23:24.423Z,101342.84
2023-08-08T18:25:51.139Z,101348.66
2023-08-08T18:28:19.096Z,101346.66
2023-08-08T18:30:45.662Z,101345.09
2023-08-08T18:33:13.398Z,101337.31
2023-08-08T18:35:40.006Z,101352.53
2023-08-08T18:38:06.600Z,101343.59
2023-08-08T18:40:33.074Z,101340.09
2023-08-08T18:43:00.270Z,101346.28
2023-08-08T18:45:27.119Z,101342.78
2023-08-08T18:47:53.689Z,101342.72
2023-08-08T18:50:20.717Z,101342.72
2023-08-08T18:52:48.295Z,101353.22
2023-08-08T18:55:16.476Z,101345.38
2023-08-08T18:57:43.037Z,101345.38
2023-08-08T19:00:09.967Z,101351.59
2023-08-08T19:02:36.493Z,101342.19
2023-08-08T19:05:03.089Z,101336.69
2023-08-08T19:07:29.627Z,101342.94
2023-08-08T19:09:56.096Z,101330.78
2023-08-08T19:12:22.716Z,101333.09
2023-08-08T19:14:49.307Z,101329.97
2023-08-08T19:17:15.760Z,101343.63
2023-08-08T19:19:42.248Z,101348.31
2023-08-08T19:22:08.704Z,101358.06
2023-08-08T19:24:35.198Z,101347.03
2023-08-08T19:27:01.668Z,101343.41
2023-08-08T19:29:28.175Z,101341.38
2023-08-08T19:31:54.838Z,101344.81
2023-08-08T19:34:22.792Z,101347.16
2023-08-08T19:36:49.341Z,101350.31
2023-08-08T19:39:15.849Z,101346.75
2023-08-08T19:41:42.327Z,101349.69
2023-08-08T19:44:08.824Z,101351.63
2023-08-08T19:46:35.668Z,101340.28
2023-08-08T19:49:02.308Z,101338.72
2023-08-08T19:51:29.161Z,101338.94
2023-08-08T19:53:56.884Z,101347.53
2023-08-08T19:56:24.961Z,101343.63
2023-08-08T19:58:52.308Z,101330.59
2023-08-08T20:01:18.970Z,101334.38
2023-08-08T20:03:45.674Z,101327.63
2023-08-08T20:06:12.360Z,101321.25
2023-08-08T20:08:39.013Z,101327.34
2023-08-08T20:11:06.980Z,101325.75
2023-08-08T20:13:33.825Z,101306.16
2023-08-08T20:16:00.436Z,101318.84
2023-08-08T20:18:26.971Z,101326.25
2023-08-08T20:20:53.921Z,101325.56
2023-08-08T20:23:20.466Z,101321.19
2023-08-08T20:25:47.141Z,101329.88
2023-08-08T20:28:13.650Z,101325.59
2023-08-08T20:30:41.978Z,101335.63
2023-08-08T20:33:09.969Z,101325.88
2023-08-08T20:35:36.452Z,101319.16
2023-08-08T20:38:03.231Z,101321.03
2023-08-08T20:40:29.714Z,101333.00
2023-08-08T20:42:57.115Z,101349.81
2023-08-08T20:45:23.654Z,101341.00
2023-08-08T20:47:50.366Z,101349.19
2023-08-08T20:50:16.842Z,101340.97
2023-08-08T20:52:44.734Z,101337.38
2023-08-08T20:55:11.376Z,101341.34
2023-08-08T20:57:37.902Z,101335.94
2023-08-08T21:00:04.983Z,101323.94
2023-08-08T21:02:31.735Z,101323.16
2023-08-08T21:04:58.208Z,101320.84
2023-08-08T21:07:25.326Z,101310.63
2023-08-08T21:09:52.019Z,101297.66
2023-08-08T21:12:18.601Z,101299.50
2023-08-08T21:14:45.098Z,101298.72
2023-08-08T21:17:11.670Z,101288.50
2023-08-08T21:19:38.242Z,101299.41
2023-08-08T21:22:04.880Z,101299.81
2023-08-08T21:24:32.471Z,101298.53
2023-08-08T21:26:59.251Z,101297.72
2023-08-08T21:29:25.794Z,101297.13
2023-08-08T21:31:52.432Z,101287.81
2023-08-08T21:34:18.877Z,101273.72
2023-08-08T21:36:45.456Z,101272.09
2023-08-08T21:39:11.861Z,101270.03
2023-08-08T21:41:38.309Z,101281.38
2023-08-08T21:44:05.239Z,101275.91
2023-08-08T21:46:31.774Z,101279.41
2023-08-08T21:48:59.404Z,101281.84
2023-08-08T21:51:25.893Z,101290.78
2023-08-08T21:53:52.395Z,101297.84
2023-08-08T21:56:18.964Z,101297.13
2023-08-08T21:58:45.407Z,101297.25
2023-08-08T22:01:12.050Z,101302.03
2023-08-08T22:03:38.502Z,101298.13
2023-08-08T22:06:05.161Z,101303.22
2023-08-08T22:08:31.920Z,101311.84
2023-08-08T22:10:58.542Z,101311.94
2023-08-08T22:13:25.144Z,101304.53
2023-08-08T22:15:51.705Z,101308.81
2023-08-08T22:18:19.824Z,101310.41
2023-08-08T22:20:47.636Z,101309.63
2023-08-08T22:23:20.450Z,101305.25
2023-08-08T22:25:49.827Z,101310.28
2023-08-08T22:28:17.224Z,101309.44
2023-08-08T22:30:44.016Z,101314.88
2023-08-08T22:33:10.641Z,101321.13
2023-08-08T22:35:37.130Z,101327.34
2023-08-08T22:38:03.954Z,101325.09
2023-08-08T22:40:30.495Z,101322.06
2023-08-08T22:42:57.251Z,101322.47
2023-08-08T22:45:23.904Z,101320.56
2023-08-08T22:47:50.395Z,101315.84
2023-08-08T22:50:16.999Z,101308.03
2023-08-08T22:52:43.520Z,101306.41
2023-08-08T22:55:10.244Z,101302.53
2023-08-08T22:57:37.271Z,101302.94
2023-08-08T23:00:07.304Z,101302.91
2023-08-08T23:02:34.954Z,101299.03
2023-08-08T23:05:01.824Z,101301.09
2023-08-08T23:07:28.353Z,101296.41
2023-08-08T23:09:55.099Z,101296.78
2023-08-08T23:12:25.587Z,101291.31
2023-08-08T23:14:52.514Z,101294.88
2023-08-08T23:17:26.868Z,101292.97
2023-08-08T23:19:58.295Z,101287.06
2023-08-08T23:22:27.303Z,101291.69
2023-08-08T23:24:58.123Z,101290.91
2023-08-08T23:27:25.615Z,101297.13
2023-08-08T23:29:52.336Z,101303.31
2023-08-08T23:32:36.947Z,101316.22
2023-08-08T23:35:07.173Z,101310.41
2023-08-08T23:37:35.286Z,101316.25
2023-08-08T23:40:05.973Z,101313.53
2023-08-08T23:42:43.996Z,101314.22
2023-08-08T23:45:13.583Z,101313.44
2023-08-08T23:47:47.982Z,101307.22
2023-08-08T23:50:16.252Z,101306.66
2023-08-08T23:52:54.475Z,101312.06
2023-08-08T23:55:21.902Z,101308.44
2023-08-08T23:57:48.689Z,101308.69
